createdAt,value
2022-11-29T05:24:53.086Z,15.18
2022-11-29T05:27:38.561Z,15.38
2022-11-29T05:30:20.886Z,13.80
2022-11-29T05:33:08.567Z,16.02
2022-11-29T05:35:54.005Z,16.80
2022-11-29T05:38:49.016Z,15.68
2022-11-29T05:41:46.546Z,16.52
2022-11-29T05:44:39.624Z,16.10
2022-11-29T05:47:10.179Z,15.73
2022-11-29T05:50:09.293Z,15.63
2022-11-29T05:52:57.563Z,15.90
2022-11-29T05:55:59.288Z,17.20
2022-11-29T05:58:52.871Z,16.30
2022-11-29T06:01:34.563Z,16.77
2022-11-29T06:04:21.191Z,17.13
2022-11-29T06:07:16.313Z,18.27
2022-11-29T06:10:02.025Z,17.77
2022-11-29T06:12:31.874Z,17.98
2022-11-29T06:15:36.174Z,17.60
2022-11-29T06:18:40.757Z,12.67
2022-11-29T06:21:29.639Z,13.25
2022-11-29T06:24:25.757Z,16.70
2022-11-29T06:27:34.446Z,17.00
2022-11-29T06:30:10.460Z,16.73
2022-11-29T06:32:50.397Z,18.08
2022-11-29T06:35:35.380Z,16.88
2022-11-29T06:38:18.315Z,17.55
2022-11-29T06:40:45.522Z,16.95
2022-11-29T06:43:12.767Z,17.40
2022-11-29T06:45:46.089Z,17.38
2022-11-29T06:48:22.593Z,17.37
2022-11-29T06:51:15.381Z,17.98
2022-11-29T06:53:50.016Z,16.20
2022-11-29T06:56:26.668Z,16.60
2022-11-29T06:59:41.403Z,17.30
2022-11-29T07:02:29.580Z,17.23
2022-11-29T07:05:05.832Z,17.42
2022-11-29T07:07:34.986Z,17.45
2022-11-29T07:10:11.979Z,17.30
2022-11-29T07:12:41.812Z,18.85
2022-11-29T07:15:18.548Z,18.50
2022-11-29T07:17:54.296Z,18.42
2022-11-29T07:20:35.281Z,18.92
2022-11-29T07:23:43.528Z,19.55
2022-11-29T07:26:26.704Z,17.95
2022-11-29T07:29:29.349Z,18.23
2022-11-29T07:32:15.613Z,18.67
2022-11-29T07:35:15.565Z,18.45
2022-11-29T07:38:06.881Z,18.45
2022-11-29T07:40:46.959Z,19.90
2022-11-29T07:43:50.020Z,17.98
2022-11-29T07:46:16.869Z,19.67
2022-11-29T07:48:43.672Z,18.85
2022-11-29T07:51:11.000Z,19.65
2022-11-29T07:53:43.248Z,19.83
2022-11-29T07:56:12.159Z,20.45
2022-11-29T07:58:39.768Z,18.48
2022-11-29T08:01:06.818Z,20.20
2022-11-29T08:03:35.364Z,19.23
2022-11-29T08:06:02.788Z,21.00
2022-11-29T08:08:29.696Z,18.83
2022-11-29T08:10:56.496Z,19.73
2022-11-29T08:13:23.276Z,20.23
2022-11-29T08:15:50.113Z,19.48
2022-11-29T08:18:17.698Z,19.88
2022-11-29T08:20:46.095Z,19.63
2022-11-29T08:23:14.015Z,20.02
2022-11-29T08:25:41.326Z,19.98
2022-11-29T08:28:08.431Z,18.95
2022-11-29T08:30:35.391Z,20.15
2022-11-29T08:33:02.240Z,19.98
2022-11-29T08:35:29.380Z,20.08
2022-11-29T08:37:56.162Z,19.48
2022-11-29T08:40:24.287Z,21.02
2022-11-29T08:42:51.217Z,19.85
2022-11-29T08:45:18.117Z,19.55
2022-11-29T08:47:44.928Z,19.42
2022-11-29T08:50:15.863Z,19.17
2022-11-29T08:53:08.357Z,18.60
2022-11-29T08:55:42.856Z,19.20
2022-11-29T08:58:13.993Z,19.05
2022-11-29T09:00:43.296Z,18.70
2022-11-29T09:03:28.759Z,19.88
2022-11-29T09:05:55.586Z,19.65
2022-11-29T09:08:22.527Z,18.42
2022-11-29T09:10:49.534Z,20.25
2022-11-29T09:13:18.013Z,19.60
2022-11-29T09:15:44.885Z,18.98
2022-11-29T09:18:11.656Z,18.75
2022-11-29T09:20:38.485Z,19.38
2022-11-29T09:23:05.380Z,20.88
2022-11-29T09:25:32.253Z,19.23
2022-11-29T09:28:03.588Z,19.67
2022-11-29T09:30:31.639Z,18.52
2022-11-29T09:33:00.718Z,19.60
2022-11-29T09:35:27.460Z,19.25
2022-11-29T09:37:54.262Z,19.15
2022-11-29T09:40:28.046Z,20.13
2022-11-29T09:43:20.009Z,20.48
2022-11-29T09:45:53.508Z,18.35
2022-11-29T09:48:59.578Z,19.65
2022-11-29T09:51:55.024Z,19.48
2022-11-29T09:55:01.924Z,19.63
2022-11-29T09:57:30.765Z,19.23
2022-11-29T10:00:05.648Z,20.92
2022-11-29T10:02:45.557Z,19.25
2022-11-29T10:05:19.556Z,20.85
2022-11-29T10:07:57.480Z,19.50
2022-11-29T10:10:40.490Z,19.80
2022-11-29T10:13:19.174Z,20.60
2022-11-29T10:15:50.607Z,20.30
2022-11-29T10:18:38.400Z,19.70
2022-11-29T10:21:14.044Z,20.77
2022-11-29T10:23:55.163Z,19.48
2022-11-29T10:26:23.036Z,18.83
2022-11-29T10:28:49.895Z,20.05
2022-11-29T10:31:37.159Z,21.15
2022-11-29T10:34:18.576Z,20.65
2022-11-29T10:36:49.714Z,20.70
2022-11-29T10:39:39.605Z,21.08
2022-11-29T10:42:34.386Z,19.38
2022-11-29T10:45:01.925Z,20.42
2022-11-29T10:47:28.807Z,19.73
2022-11-29T10:49:56.751Z,20.35
2022-11-29T10:52:24.164Z,21.25
2022-11-29T10:54:56.992Z,21.70
2022-11-29T10:57:24.066Z,21.17
2022-11-29T11:00:06.877Z,21.65
2022-11-29T11:02:34.533Z,21.75
2022-11-29T11:05:02.098Z,20.95
2022-11-29T11:07:35.615Z,21.00
2022-11-29T11:10:20.795Z,22.27
2022-11-29T11:13:06.933Z,21.42
2022-11-29T11:15:34.386Z,22.33
2022-11-29T11:18:06.238Z,22.33
2022-11-29T11:20:37.418Z,21.77
2022-11-29T11:23:11.642Z,21.17
2022-11-29T11:28:38.756Z,20.35
2022-11-29T11:31:08.809Z,19.75
2022-11-29T11:33:46.248Z,20.73
2022-11-29T11:36:27.483Z,22.00
2022-11-29T11:39:12.876Z,22.02
2022-11-29T11:42:01.425Z,21.88
2022-11-29T11:44:48.413Z,21.58
2022-11-29T11:47:27.870Z,20.73
2022-11-29T11:50:01.970Z,21.80
2022-11-29T11:52:52.261Z,23.17
2022-11-29T11:55:43.318Z,21.63
2022-11-29T11:58:12.997Z,20.55
2022-11-29T12:01:07.589Z,21.52
2022-11-29T12:03:58.944Z,21.52
2022-11-29T12:06:51.244Z,21.38
2022-11-29T12:09:41.112Z,21.60
2022-11-29T12:12:26.027Z,22.40
2022-11-29T12:15:04.477Z,21.92
2022-11-29T12:17:56.530Z,24.13
2022-11-29T12:20:41.360Z,22.45
2022-11-29T12:23:14.363Z,22.45
2022-11-29T12:26:03.540Z,23.45
2022-11-29T12:28:35.195Z,23.25
2022-11-29T12:31:33.024Z,22.95
2022-11-29T12:34:43.418Z,21.02
2022-11-29T12:37:43.740Z,22.13
2022-11-29T12:40:44.035Z,23.45
2022-11-29T12:43:53.861Z,23.58
2022-11-29T12:46:26.302Z,25.52
2022-11-29T12:49:43.380Z,22.70
2022-11-29T12:52:35.782Z,23.55
2022-11-29T12:55:27.011Z,23.67
2022-11-29T12:58:15.160Z,23.45
2022-11-29T13:01:31.523Z,24.90
2022-11-29T13:04:21.220Z,24.30
2022-11-29T13:07:12.500Z,24.02
2022-11-29T13:09:54.220Z,23.77
2022-11-29T13:12:49.212Z,24.02
2022-11-29T13:18:50.807Z,23.33
2022-11-29T13:21:40.583Z,25.35
2022-11-29T13:24:16.851Z,26.08
2022-11-29T13:26:44.454Z,24.73
2022-11-29T13:29:17.446Z,25.35
2022-11-29T13:31:46.824Z,25.88
2022-11-29T13:34:22.644Z,26.60
2022-11-29T13:36:57.796Z,25.73
2022-11-29T13:39:52.737Z,26.52
2022-11-29T13:45:21.686Z,25.25
2022-11-29T13:48:00.817Z,24.80
2022-11-29T13:50:45.162Z,25.10
2022-11-29T13:53:19.411Z,26.63
2022-11-29T13:58:17.860Z,25.55
2022-11-29T14:00:44.867Z,25.63
2022-11-29T14:03:23.643Z,26.73
2022-11-29T14:05:54.772Z,27.15
2022-11-29T14:09:10.242Z,28.80
2022-11-29T14:11:34.825Z,26.70
2022-11-29T14:14:05.097Z,28.95
2022-11-29T14:16:43.902Z,28.40
2022-11-29T14:19:10.564Z,28.75
2022-11-29T14:21:59.139Z,28.85
2022-11-29T14:24:37.939Z,27.98
2022-11-29T14:27:07.738Z,28.83
2022-11-29T14:29:53.685Z,28.08
2022-11-29T14:32:46.322Z,29.33
2022-11-29T14:35:21.976Z,27.05
2022-11-29T14:38:14.479Z,28.55
2022-11-29T14:40:41.824Z,28.60
2022-11-29T14:43:36.878Z,30.20
2022-11-29T14:46:15.571Z,28.92
2022-11-29T14:48:54.929Z,30.55
2022-11-29T14:51:23.965Z,28.60
2022-11-29T14:54:14.642Z,29.58
2022-11-29T14:56:44.929Z,27.70
2022-11-29T14:59:41.397Z,29.33
2022-11-29T15:02:29.381Z,30.98
2022-11-29T15:04:58.209Z,26.75
2022-11-29T15:07:31.924Z,28.88
2022-11-29T15:10:04.400Z,29.33
2022-11-29T15:12:36.571Z,31.40
2022-11-29T15:15:33.652Z,30.08
2022-11-29T15:18:06.676Z,29.00
2022-11-29T15:20:57.972Z,29.27
2022-11-29T15:23:24.922Z,29.27
2022-11-29T15:26:00.188Z,30.27
2022-11-29T15:28:29.374Z,29.15
2022-11-29T15:31:06.150Z,29.23
2022-11-29T15:33:40.277Z,29.33
2022-11-29T15:36:19.307Z,30.83
2022-11-29T15:38:54.124Z,31.92
2022-11-29T15:41:30.791Z,31.95
2022-11-29T15:44:05.547Z,31.27
2022-11-29T15:46:35.171Z,30.40
2022-11-29T15:49:25.662Z,30.98
2022-11-29T15:52:00.303Z,30.38
2022-11-29T15:54:38.156Z,28.58
2022-11-29T15:57:20.838Z,31.30
2022-11-29T15:59:59.557Z,29.30
2022-11-29T16:02:36.984Z,30.23
2022-11-29T16:05:22.157Z,31.52
2022-11-29T16:07:54.175Z,31.92
2022-11-29T16:10:34.948Z,30.58
2022-11-29T16:13:25.606Z,31.75
2022-11-29T16:16:09.712Z,30.33
2022-11-29T16:18:40.836Z,31.10
2022-11-29T16:21:23.165Z,31.85
2022-11-29T16:23:50.090Z,30.98
2022-11-29T16:26:27.189Z,35.35
2022-11-29T16:28:57.722Z,31.80
2022-11-29T16:31:38.352Z,33.95
2022-11-29T16:34:18.743Z,32.80
2022-11-29T16:36:45.756Z,32.75
2022-11-29T16:39:23.154Z,33.60
2022-11-29T16:42:30.168Z,31.13
2022-11-29T16:45:37.012Z,31.85
2022-11-29T16:48:25.369Z,32.42
2022-11-29T16:51:10.452Z,31.77
2022-11-29T16:53:41.375Z,32.20
2022-11-29T16:56:14.789Z,31.48
2022-11-29T16:59:20.780Z,31.65
2022-11-29T17:01:31.490Z,32.45
2022-11-29T17:03:59.930Z,33.67
2022-11-29T17:06:28.654Z,34.75
2022-11-29T17:08:57.879Z,33.78
2022-11-29T17:11:25.569Z,32.47
2022-11-29T17:13:52.665Z,31.25
2022-11-29T17:16:23.005Z,34.45
2022-11-29T17:18:52.797Z,34.50
2022-11-29T17:21:37.263Z,32.03
2022-11-29T17:26:50.236Z,30.50
2022-11-29T17:29:29.765Z,33.78
2022-11-29T17:32:09.807Z,34.63
2022-11-29T17:34:39.134Z,34.83
2022-11-29T17:37:06.531Z,35.67
2022-11-29T17:44:45.552Z,32.25
2022-11-29T17:47:41.253Z,32.97
2022-11-29T17:50:21.458Z,34.67
2022-11-29T17:53:03.099Z,34.95
2022-11-29T17:55:30.569Z,34.47
2022-11-29T17:58:19.613Z,35.20
2022-11-29T18:00:49.905Z,34.67
2022-11-29T18:03:26.135Z,35.90
2022-11-29T18:06:17.433Z,34.00
2022-11-29T18:09:06.104Z,36.10
2022-11-29T18:11:49.622Z,32.55
2022-11-29T18:14:32.900Z,32.58
2022-11-29T18:17:00.261Z,33.38
2022-11-29T18:19:33.356Z,34.70
2022-11-29T18:22:23.475Z,35.10
2022-11-29T18:25:16.124Z,34.85
2022-11-29T18:28:00.871Z,34.55
2022-11-29T18:30:33.738Z,35.33
2022-11-29T18:33:03.977Z,36.60
2022-11-29T18:35:35.127Z,34.17
2022-11-29T18:38:17.111Z,34.90
2022-11-29T18:41:00.420Z,31.77
2022-11-29T18:43:32.367Z,33.85
2022-11-29T18:46:15.861Z,35.85
2022-11-29T18:48:48.429Z,35.92
2022-11-29T18:51:30.027Z,34.63
2022-11-29T18:54:00.682Z,35.75
2022-11-29T18:56:31.053Z,39.47
2022-11-29T18:59:54.825Z,37.15
2022-11-29T19:02:25.813Z,37.45
2022-11-29T19:05:13.384Z,38.40
2022-11-29T19:07:53.687Z,40.53
2022-11-29T19:10:25.493Z,37.40
2022-11-29T19:12:52.687Z,37.58
2022-11-29T19:15:21.771Z,39.20
2022-11-29T19:17:48.684Z,39.97
2022-11-29T19:20:15.807Z,38.47
2022-11-29T19:22:42.777Z,38.17
2022-11-29T19:25:16.153Z,36.17
2022-11-29T19:27:45.349Z,34.30
2022-11-29T19:30:15.494Z,36.67
2022-11-29T19:32:45.625Z,35.83
2022-11-29T19:35:15.917Z,37.30
2022-11-29T19:38:22.560Z,35.70
2022-11-29T19:40:55.227Z,38.20
2022-11-29T19:43:25.027Z,37.10
2022-11-29T19:45:55.037Z,37.25
2022-11-29T19:48:30.050Z,37.58
2022-11-29T19:51:00.589Z,35.05
2022-11-29T19:53:35.232Z,35.08
2022-11-29T19:56:08.122Z,35.17
2022-11-29T19:58:35.101Z,33.20
2022-11-29T20:01:13.382Z,35.92
2022-11-29T20:03:41.238Z,33.55
2022-11-29T20:06:16.262Z,33.08
2022-11-29T20:08:46.816Z,31.30
2022-11-29T20:11:17.923Z,32.05
2022-11-29T20:13:47.509Z,34.65
2022-11-29T20:16:18.354Z,33.88
2022-11-29T20:18:51.107Z,32.38
2022-11-29T20:21:28.480Z,33.30
2022-11-29T20:24:07.909Z,34.05
2022-11-29T20:26:39.903Z,33.38
2022-11-29T20:29:08.678Z,31.63
2022-11-29T20:31:38.492Z,32.40
2022-11-29T20:34:06.573Z,33.47
2022-11-29T20:37:22.256Z,35.03
2022-11-29T20:43:07.244Z,29.00
2022-11-29T20:45:34.439Z,32.05
2022-11-29T20:48:15.332Z,32.05
2022-11-29T20:50:47.166Z,33.15
2022-11-29T20:53:43.174Z,34.58
2022-11-29T20:56:11.919Z,33.67
2022-11-29T20:58:39.191Z,33.08
2022-11-29T21:01:07.586Z,33.42
2022-11-29T21:03:35.222Z,31.80
2022-11-29T21:06:05.003Z,29.63
2022-11-29T21:08:32.861Z,30.85
2022-11-29T21:11:09.998Z,30.80
2022-11-29T21:13:39.391Z,29.95
2022-11-29T21:16:08.858Z,29.05
2022-11-29T21:18:39.691Z,30.45
2022-11-29T21:21:36.643Z,29.13
2022-11-29T21:25:08.864Z,29.33
2022-11-29T21:27:52.913Z,27.65
2022-11-29T21:30:33.424Z,28.33
2022-11-29T21:33:24.480Z,30.58
2022-11-29T21:36:11.919Z,27.70
2022-11-29T21:38:54.900Z,26.48
2022-11-29T21:41:28.011Z,26.23
2022-11-29T21:44:06.602Z,26.50
2022-11-29T21:46:38.451Z,26.33
2022-11-29T21:49:10.899Z,26.58
2022-11-29T21:51:38.048Z,29.17
2022-11-29T21:54:06.523Z,28.20
2022-11-29T21:56:41.297Z,30.05
2022-11-29T21:59:26.532Z,28.63
2022-11-29T22:01:54.385Z,31.35
2022-11-29T22:04:30.243Z,29.77
2022-11-29T22:07:04.307Z,29.88
2022-11-29T22:09:41.473Z,30.45
2022-11-29T22:12:32.041Z,29.98
2022-11-29T22:14:58.505Z,29.50
2022-11-29T22:17:41.956Z,30.30
2022-11-29T22:20:09.648Z,27.60
2022-11-29T22:23:38.200Z,29.38
2022-11-29T22:32:48.543Z,26.48
2022-11-29T22:35:23.352Z,26.25
2022-11-29T22:37:50.699Z,24.77
2022-11-29T22:40:20.986Z,26.25
2022-11-29T22:43:02.957Z,26.88
2022-11-29T22:46:12.261Z,27.33
2022-11-29T22:49:03.253Z,27.13
2022-11-29T22:52:02.555Z,25.50
2022-11-29T22:54:34.570Z,25.33
2022-11-29T22:57:01.712Z,25.17
2022-11-29T23:00:14.961Z,26.33
2022-11-29T23:02:44.288Z,23.60
2022-11-29T23:05:20.593Z,23.67
2022-11-29T23:07:49.690Z,24.73
2022-11-29T23:14:03.510Z,23.30
2022-11-29T23:17:06.392Z,24.30
2022-11-29T23:22:55.568Z,21.42
2022-11-29T23:25:22.551Z,22.52
2022-11-29T23:27:50.783Z,22.13
2022-11-29T23:30:17.997Z,23.17
2022-11-29T23:32:45.103Z,21.75
2022-11-29T23:35:12.586Z,20.50
2022-11-29T23:37:40.002Z,22.77
2022-11-29T23:40:14.731Z,20.75
2022-11-29T23:43:43.718Z,20.02
2022-11-29T23:46:32.325Z,20.13
2022-11-29T23:48:59.350Z,20.73
2022-11-29T23:51:26.397Z,20.80
2022-11-29T23:54:00.380Z,21.05
2022-11-29T23:56:36.060Z,20.60
2022-11-29T23:59:03.704Z,21.20
